TimeCST,TemperatureF,Dew PointF,Humidity,Sea Level PressureIn,VisibilityMPH,Wind Direction,Wind SpeedMPH,Gust SpeedMPH,PrecipitationIn,Events,Conditions,WindDirDegrees,DateUTC
12:15 AM,35.6,32.0,87,30.13,10.0,SSW,9.2,-,N/A,,Overcast,210,2013-01-06 06:15:00
12:35 AM,35.6,32.0,87,30.12,10.0,SSW,8.1,-,N/A,,Overcast,210,2013-01-06 06:35:00
12:55 AM,35.6,32.0,87,30.12,10.0,SSW,9.2,-,N/A,,Overcast,210,2013-01-06 06:55:00
1:15 AM,36.0,32.0,86,30.12,10.0,SW,9.2,-,N/A,,Overcast,220,2013-01-06 07:15:00
1:35 AM,36.1,32.0,85,30.11,10.0,SSW,9.2,-,N/A,,Overcast,210,2013-01-06 07:35:00
1:55 AM,36.0,32.0,86,30.11,10.0,SSW,9.2,-,N/A,,Overcast,210,2013-01-06 07:55:00
2:15 AM,36.0,32.0,86,30.11,10.0,SSW,8.1,-,N/A,,Overcast,200,2013-01-06 08:15:00
2:35 AM,35.6,32.0,87,30.11,10.0,SSW,8.1,-,N/A,,Overcast,200,2013-01-06 08:35:00
2:55 AM,35.8,32.0,86,30.10,10.0,SSW,9.2,-,N/A,,Overcast,200,2013-01-06 08:55:00
3:15 AM,35.6,32.0,87,30.10,10.0,SSW,6.9,-,N/A,,Overcast,210,2013-01-06 09:15:00
3:35 AM,35.8,32.0,86,30.09,10.0,SW,9.2,-,N/A,,Overcast,220,2013-01-06 09:35:00
3:55 AM,36.0,32.0,86,30.08,10.0,SW,8.1,-,N/A,,Overcast,220,2013-01-06 09:55:00
4:15 AM,35.2,32.0,88,30.07,10.0,SW,6.9,-,N/A,,Scattered Clouds,220,2013-01-06 10:15:00
4:35 AM,35.6,31.6,85,30.07,10.0,SW,8.1,-,N/A,,Clear,230,2013-01-06 10:35:00
4:55 AM,36.3,32.0,84,30.07,10.0,WSW,8.1,-,N/A,,Mostly Cloudy,240,2013-01-06 10:55:00
5:15 AM,36.5,32.0,84,30.07,10.0,WSW,6.9,-,N/A,,Overcast,240,2013-01-06 11:15:00
5:35 AM,36.3,31.8,84,30.08,10.0,WSW,6.9,-,N/A,,Overcast,250,2013-01-06 11:35:00
5:55 AM,37.0,31.8,81,30.09,10.0,WSW,9.2,-,N/A,,Overcast,250,2013-01-06 11:55:00
6:15 AM,37.2,31.5,80,30.10,10.0,West,12.7,18.4,N/A,,Overcast,270,2013-01-06 12:15:00
6:35 AM,37.0,31.1,79,30.12,10.0,West,12.7,18.4,N/A,,Overcast,270,2013-01-06 12:35:00
6:55 AM,35.8,30.7,82,30.12,10.0,West,13.8,19.6,N/A,,Mostly Cloudy,280,2013-01-06 12:55:00
7:15 AM,35.4,30.2,81,30.13,10.0,West,10.4,-,N/A,,Overcast,270,2013-01-06 13:15:00
7:35 AM,35.2,29.3,79,30.14,10.0,NW,10.4,17.3,N/A,,Overcast,310,2013-01-06 13:35:00
7:55 AM,34.3,28.0,78,30.15,10.0,WNW,9.2,-,N/A,,Overcast,300,2013-01-06 13:55:00
8:15 AM,34.3,27.5,76,30.15,10.0,WNW,8.1,-,N/A,,Overcast,300,2013-01-06 14:15:00
8:35 AM,34.3,27.5,76,30.16,10.0,WNW,9.2,-,N/A,,Overcast,290,2013-01-06 14:35:00
8:55 AM,34.2,27.7,77,30.17,10.0,WNW,9.2,-,N/A,,Overcast,290,2013-01-06 14:55:00
9:15 AM,34.0,28.9,82,30.18,10.0,West,9.2,17.3,N/A,,Overcast,280,2013-01-06 15:15:00
9:35 AM,33.8,26.4,74,30.19,10.0,West,16.1,19.6,N/A,,Overcast,280,2013-01-06 15:35:00
9:55 AM,33.8,26.6,75,30.19,10.0,West,11.5,-,N/A,,Overcast,280,2013-01-06 15:55:00
10:15 AM,33.4,26.6,76,30.19,10.0,WNW,15.0,19.6,N/A,,Overcast,290,2013-01-06 16:15:00
10:35 AM,33.8,27.1,77,30.20,10.0,WNW,16.1,21.9,N/A,,Overcast,290,2013-01-06 16:35:00
10:55 AM,33.1,26.1,75,30.20,10.0,WNW,15.0,23.0,N/A,,Overcast,300,2013-01-06 16:55:00
11:15 AM,32.0,25.5,77,30.21,10.0,NW,15.0,20.7,N/A,,Overcast,310,2013-01-06 17:15:00
11:35 AM,32.0,25.7,78,30.21,10.0,NW,15.0,18.4,N/A,,Overcast,320,2013-01-06 17:35:00
11:55 AM,32.0,26.1,79,30.22,10.0,NW,9.2,19.6,N/A,,Overcast,310,2013-01-06 17:55:00
12:15 PM,32.0,25.3,76,30.22,7.0,NW,12.7,21.9,N/A,,Overcast,320,2013-01-06 18:15:00
12:35 PM,32.0,24.4,74,30.22,7.0,NW,16.1,23.0,N/A,,Overcast,310,2013-01-06 18:35:00
12:55 PM,32.4,24.8,74,30.22,7.0,NW,15.0,20.7,N/A,,Mostly Cloudy,310,2013-01-06 18:55:00
1:15 PM,32.0,24.1,73,30.23,7.0,NW,15.0,23.0,N/A,,Scattered Clouds,310,2013-01-06 19:15:00
1:35 PM,32.0,23.9,72,30.24,7.0,NW,17.3,21.9,N/A,,Scattered Clouds,310,2013-01-06 19:35:00
1:55 PM,32.0,24.4,74,30.25,7.0,NW,15.0,23.0,N/A,,Scattered Clouds,310,2013-01-06 19:55:00
2:15 PM,32.0,24.3,73,30.27,7.0,NW,11.5,20.7,N/A,,Scattered Clouds,310,2013-01-06 20:15:00
2:35 PM,32.2,24.3,73,30.27,7.0,NW,16.1,20.7,N/A,,Mostly Cloudy,310,2013-01-06 20:35:00
2:55 PM,32.0,24.1,73,30.29,7.0,NW,15.0,20.7,N/A,,Mostly Cloudy,310,2013-01-06 20:55:00
3:15 PM,32.0,24.1,73,30.30,10.0,NW,15.0,18.4,N/A,,Mostly Cloudy,320,2013-01-06 21:15:00
3:35 PM,31.6,23.7,73,30.31,10.0,NW,11.5,19.6,N/A,,Mostly Cloudy,320,2013-01-06 21:35:00
3:55 PM,31.1,23.5,74,30.32,10.0,NNW,13.8,19.6,N/A,,Scattered Clouds,330,2013-01-06 21:55:00
4:15 PM,30.9,23.0,72,30.33,10.0,NW,12.7,-,N/A,,Scattered Clouds,320,2013-01-06 22:15:00
4:35 PM,30.6,23.2,74,30.33,10.0,NW,10.4,-,N/A,,Scattered Clouds,310,2013-01-06 22:35:00
4:55 PM,29.5,23.0,77,30.33,10.0,NW,4.6,-,N/A,,Clear,310,2013-01-06 22:55:00
5:15 PM,28.9,22.8,78,30.35,10.0,NW,5.8,-,N/A,,Clear,320,2013-01-06 23:15:00
5:35 PM,28.6,22.5,78,30.35,10.0,NW,4.6,-,N/A,,Clear,310,2013-01-06 23:35:00
5:55 PM,28.4,22.3,78,30.35,10.0,NW,3.5,-,N/A,,Clear,310,2013-01-06 23:55:00
6:15 PM,27.7,22.1,80,30.36,10.0,WNW,4.6,-,N/A,,Clear,290,2013-01-07 00:15:00
6:35 PM,27.3,22.1,81,30.37,10.0,WNW,4.6,-,N/A,,Clear,300,2013-01-07 00:35:00
6:55 PM,26.6,21.2,80,30.37,10.0,WNW,3.5,-,N/A,,Clear,290,2013-01-07 00:55:00
7:15 PM,26.4,21.6,82,30.38,10.0,WNW,4.6,-,N/A,,Clear,300,2013-01-07 01:15:00
7:35 PM,26.1,22.1,85,30.39,10.0,Calm,Calm,-,N/A,,Clear,0,2013-01-07 01:35:00
7:55 PM,26.1,21.2,82,30.39,10.0,Calm,Calm,-,N/A,,Clear,0,2013-01-07 01:55:00
8:15 PM,23.4,21.6,93,30.40,7.0,Calm,Calm,-,N/A,,Clear,0,2013-01-07 02:15:00
8:35 PM,22.5,21.2,95,30.40,7.0,Calm,Calm,-,N/A,,Clear,0,2013-01-07 02:35:00
8:55 PM,22.1,21.0,96,30.39,7.0,Calm,Calm,-,N/A,,Clear,0,2013-01-07 02:55:00
9:15 PM,22.3,21.0,95,30.39,5.0,Calm,Calm,-,N/A,,Clear,0,2013-01-07 03:15:00
9:35 PM,21.6,20.8,97,30.39,5.0,Calm,Calm,-,N/A,,Clear,0,2013-01-07 03:35:00
9:55 PM,21.0,20.3,97,30.40,4.0,Calm,Calm,-,N/A,,Clear,0,2013-01-07 03:55:00
10:15 PM,21.2,20.8,99,30.40,3.0,Calm,Calm,-,N/A,,Clear,0,2013-01-07 04:15:00
10:35 PM,21.2,21.2,100,30.40,2.0,Calm,Calm,-,N/A,,Clear,0,2013-01-07 04:35:00
10:55 PM,19.9,19.4,98,30.40,2.0,Calm,Calm,-,N/A,,Clear,0,2013-01-07 04:55:00
11:15 PM,20.5,19.9,98,30.40,3.0,Calm,Calm,-,N/A,,Clear,0,2013-01-07 05:15:00
11:35 PM,21.2,19.4,93,30.40,3.0,Calm,Calm,-,N/A,,Clear,0,2013-01-07 05:35:00